Florence, WI (54121)

7:53 PM CST on December 04, 2016 (GMT -0600)
APRSWXNET | | Change Station

Elev 1258 ft 46.00 °N, 88.16 °W | Updated 1 hour ago

Light Snow
Light Snow Mist
28 °F
Feels Like 28 °F
N
0
Wind Variable Wind from NNW
Gusts 0.0 mph

Today
High -- | Low -- °F
--% Chance of Precip.
Yesterday
High -- | Low -- °F
Precip. -- in
Pressure 29.76 in
Visibility 1.2 miles
Clouds Mostly Cloudy 800 ft
Mostly Cloudy 1100 ft
Overcast 1600 ft
Windchill 28 °F
Dew Point 27 °F
Humidity 96%
Rainfall in
Snow Depth Not available.
7:18 AM 4:08 PM
Waxing Crescent, 27% visible
SPECI KIMT 050105Z AUTO 15005KT 1 1/4SM -SN BR BKN008 BKN011 OVC016 M01/M03 A2976 RMK AO2 P0000 T10111033
Pressure 29.76 in
Visibility 1.2 miles
Clouds Mostly Cloudy 800 ft
Mostly Cloudy 1100 ft
Overcast 1600 ft
Windchill 28 °F
Dew Point 27 °F
Humidity 96%
Rainfall in
Snow Depth Not available.
7:18 AM 4:08 PM
Waxing Crescent, 27% visible
SPECI KIMT 050105Z AUTO 15005KT 1 1/4SM -SN BR BKN008 BKN011 OVC016 M01/M03 A2976 RMK AO2 P0000 T10111033

10-Day Weather Forecast

Almanac

Astronomy

Dec. 04, 2016 Rise Set
Actual Time
Civil Twilight
Nautical Twilight
Astronomical Twilight
Moon
Length of Visible Light
Length of Day
Tomorrow will be .
, % of the Moon is Illuminated

Today's Extremes

State Highs State Lows

Community

WunderPhotos

Upload Photos

1,955,744 photos uploaded!

WunderBlog® & News

Nearby

Air Quality

  Air Quality AQ Index Pollutant
Not available.

Snow Depth

Station Depth Elevation

Earthquake Activity

City Distance Mag. Time & Date
Minimum magnitude displayed is 2.5.

Coastal Water Temperatures

Place Temperature

Stations

Nearby Weather Stations

Station Location Temp. Windchill Dew Point Humidity Wind Precip. Elev Updated Type
                   

Watches & Warnings

There are currently no watches in effect.